Pagrindinis puslapis
METAR-TAF:

METAR-TAF

Oro uostai :

Kaskavelas, Parana, Brazilija

platuma: 25-00-08S, ilguma: 53-30-07W, Aukštis: 754 m

Dabartinis oras

Ataskaita buvo paskelbta 10 valandos ir 17 minutes, ne 21:00 UTC
Vėjas 22 kt iš Šiaurės
Temperatūra 25°C
Drėgmė 65%
Slėgis 1009 hPa
Matomumas 10 km arba daugiau
Mažai debesys ne aukštis 3000 ft

METAR: SBCA 022100Z 36022KT 9999 FEW030 25/18 Q1009

Laikas: 04:17 (07:17 UTC)


TAF: trūkstamas

Orai ataskaitas ir orų prognozės (METAR, TAF).

turimą stotys yra geltonos ir raudonos taškus žemėlapyje.

Perkelti pele per norėdami pamatyti stoties vardą.

Tada spustelėkite, norėdami matyti oro stebėjimo ir prognozės.

Norėdami pakeisti žemėlapį: spustelėkite ant žalios mygtukų su juodo kryžiaus žemyn,; žalią mygtuką su brūkšneliu, jei norite nutolinti; arba žalių rodyklių gretimoms žemėlapius.


METAR-TAF: